createdAt,value
2022-07-31T00:00:19.558Z,1.50
2022-07-31T00:02:46.978Z,1.60
2022-07-31T00:05:14.464Z,1.10
2022-07-31T00:07:41.464Z,1.15
2022-07-31T00:10:09.337Z,1.08
2022-07-31T00:12:36.388Z,1.20
2022-07-31T00:15:06.433Z,1.55
2022-07-31T00:17:34.395Z,1.27
2022-07-31T00:20:02.085Z,1.35
2022-07-31T00:22:29.414Z,1.20
2022-07-31T00:24:56.856Z,1.15
2022-07-31T00:27:24.447Z,1.17
2022-07-31T00:29:51.854Z,1.17
2022-07-31T00:32:19.079Z,1.30
2022-07-31T00:34:46.033Z,1.50
2022-07-31T00:37:13.007Z,1.17
2022-07-31T00:39:39.921Z,1.12
2022-07-31T00:42:16.400Z,1.37
2022-07-31T00:44:43.377Z,1.40
2022-07-31T00:47:15.353Z,1.98
2022-07-31T00:49:42.349Z,1.67
2022-07-31T00:52:09.353Z,1.70
2022-07-31T00:54:36.485Z,1.33
2022-07-31T00:57:04.323Z,1.20
2022-07-31T00:59:32.141Z,1.37
2022-07-31T01:02:00.482Z,1.30
2022-07-31T01:04:27.527Z,1.40
2022-07-31T01:06:59.529Z,1.70
2022-07-31T01:09:26.815Z,1.20
2022-07-31T01:12:06.359Z,1.30
2022-07-31T01:14:38.923Z,1.58
2022-07-31T01:17:08.535Z,1.30
2022-07-31T01:19:45.056Z,1.50
2022-07-31T01:22:40.883Z,1.23
2022-07-31T01:25:22.959Z,1.40
2022-07-31T01:27:52.886Z,1.40
2022-07-31T01:30:24.791Z,1.80
2022-07-31T01:32:57.622Z,1.05
2022-07-31T01:35:27.051Z,1.45
2022-07-31T01:38:01.834Z,1.17
2022-07-31T01:40:37.815Z,1.30
2022-07-31T01:43:28.695Z,1.20
2022-07-31T01:45:58.018Z,1.40
2022-07-31T01:48:26.959Z,1.30
2022-07-31T01:50:56.738Z,1.55
2022-07-31T01:53:27.024Z,1.83
2022-07-31T01:56:03.574Z,1.60
2022-07-31T01:58:35.188Z,1.00
2022-07-31T02:01:05.093Z,1.50
2022-07-31T02:03:44.491Z,1.55
2022-07-31T02:06:18.172Z,1.62
2022-07-31T02:08:51.293Z,1.40
2022-07-31T02:11:21.620Z,1.50
2022-07-31T02:13:50.263Z,1.30
2022-07-31T02:16:19.158Z,1.50
2022-07-31T02:18:49.724Z,1.02
2022-07-31T02:21:17.858Z,1.20
2022-07-31T02:23:45.023Z,1.50
2022-07-31T02:26:13.458Z,1.40
2022-07-31T02:28:43.851Z,1.23
2022-07-31T02:31:13.199Z,1.20
2022-07-31T02:33:42.520Z,1.23
2022-07-31T02:36:11.686Z,1.45
2022-07-31T02:38:40.948Z,1.77
2022-07-31T02:41:09.804Z,1.23
2022-07-31T02:43:37.711Z,1.30
2022-07-31T02:46:06.766Z,1.48
2022-07-31T02:48:33.840Z,1.30
2022-07-31T02:51:01.079Z,1.27
2022-07-31T02:53:28.658Z,1.60
2022-07-31T02:55:56.556Z,1.40
2022-07-31T02:58:23.519Z,1.23
2022-07-31T03:01:01.772Z,1.25
2022-07-31T03:03:29.112Z,1.40
2022-07-31T03:05:56.297Z,1.40
2022-07-31T03:08:23.418Z,1.20
2022-07-31T03:10:50.856Z,1.12
2022-07-31T03:13:18.828Z,1.12
2022-07-31T03:15:50.114Z,1.45
2022-07-31T03:18:21.899Z,1.30
2022-07-31T03:20:53.094Z,0.98
2022-07-31T03:23:22.614Z,1.10
2022-07-31T03:25:51.141Z,1.27
2022-07-31T03:28:20.029Z,1.05
2022-07-31T03:30:56.992Z,1.02
2022-07-31T03:33:24.151Z,1.12
2022-07-31T03:35:51.333Z,1.52
2022-07-31T03:38:42.301Z,1.40
2022-07-31T03:41:05.468Z,1.30
2022-07-31T03:43:46.941Z,1.62
2022-07-31T03:46:20.256Z,1.30
2022-07-31T03:48:47.987Z,2.20
2022-07-31T03:51:16.036Z,1.08
2022-07-31T03:53:43.775Z,1.08
2022-07-31T03:56:11.829Z,1.08
2022-07-31T03:58:39.099Z,1.20
2022-07-31T04:01:10.381Z,1.35
2022-07-31T04:03:39.449Z,1.20
2022-07-31T04:06:06.591Z,1.20
2022-07-31T04:08:34.393Z,1.08
2022-07-31T04:11:01.332Z,1.30
2022-07-31T04:13:28.607Z,1.30
2022-07-31T04:15:55.586Z,1.30
2022-07-31T04:18:22.603Z,1.00
2022-07-31T04:20:49.599Z,1.20
2022-07-31T04:23:16.950Z,1.70
2022-07-31T04:25:43.938Z,1.10
2022-07-31T04:28:11.263Z,1.15
2022-07-31T04:30:39.250Z,1.52
2022-07-31T04:33:06.452Z,1.48
2022-07-31T04:35:33.504Z,1.77
2022-07-31T04:38:00.609Z,1.62
2022-07-31T04:40:27.711Z,1.12
2022-07-31T04:42:55.474Z,1.00
2022-07-31T04:45:22.413Z,1.55
2022-07-31T04:47:49.430Z,1.30
2022-07-31T04:50:16.455Z,1.48
2022-07-31T04:52:43.415Z,1.67
2022-07-31T04:55:10.530Z,1.90
2022-07-31T04:57:37.508Z,1.92
2022-07-31T05:00:06.237Z,1.33
2022-07-31T05:02:33.516Z,1.48
2022-07-31T05:05:00.552Z,1.30
2022-07-31T05:07:28.606Z,1.70
2022-07-31T05:09:56.560Z,1.62
2022-07-31T05:12:23.511Z,1.95
2022-07-31T05:14:50.542Z,1.60
2022-07-31T05:17:17.468Z,1.65
2022-07-31T05:19:44.552Z,1.45
2022-07-31T05:22:12.470Z,2.00
2022-07-31T05:24:40.327Z,1.50
2022-07-31T05:27:07.341Z,1.65
2022-07-31T05:29:34.446Z,1.50
2022-07-31T05:32:02.172Z,1.50
2022-07-31T05:34:30.772Z,1.37
2022-07-31T05:37:01.404Z,1.50
2022-07-31T05:39:29.108Z,1.55
2022-07-31T05:41:56.045Z,1.35
2022-07-31T05:44:23.019Z,1.70
2022-07-31T05:49:15.892Z,2.00
2022-07-31T05:51:46.935Z,1.70
2022-07-31T05:54:14.418Z,1.90
2022-07-31T05:56:41.371Z,2.95
2022-07-31T05:59:09.768Z,1.77
2022-07-31T06:01:37.387Z,2.45
2022-07-31T06:04:04.398Z,1.70
2022-07-31T06:06:31.353Z,1.60
2022-07-31T06:09:03.758Z,2.08
2022-07-31T06:11:31.811Z,1.50
2022-07-31T06:13:58.847Z,1.92
2022-07-31T06:16:25.761Z,1.62
2022-07-31T06:18:52.741Z,1.60
2022-07-31T06:23:45.539Z,1.73
2022-07-31T06:26:12.533Z,1.48
2022-07-31T06:28:48.776Z,1.58
2022-07-31T06:31:25.260Z,1.67
2022-07-31T06:33:52.631Z,1.70
2022-07-31T06:36:20.151Z,1.60
2022-07-31T06:38:47.195Z,1.70
2022-07-31T06:41:33.199Z,1.42
2022-07-31T06:44:00.177Z,1.80
2022-07-31T06:46:27.637Z,1.80
2022-07-31T06:48:54.855Z,1.83
2022-07-31T06:51:31.382Z,2.28
2022-07-31T06:54:03.429Z,1.90
2022-07-31T06:56:31.625Z,1.90
2022-07-31T06:58:59.193Z,1.90
2022-07-31T07:01:26.225Z,1.80
2022-07-31T07:03:54.265Z,1.62
2022-07-31T07:06:21.598Z,1.73
2022-07-31T07:08:48.688Z,1.55
2022-07-31T07:11:15.918Z,1.90
2022-07-31T07:13:45.549Z,1.50
2022-07-31T07:16:15.010Z,1.70
2022-07-31T07:18:43.336Z,1.55
2022-07-31T07:21:11.413Z,1.80
2022-07-31T07:23:38.873Z,1.75
2022-07-31T07:26:06.330Z,1.48
2022-07-31T07:28:34.118Z,1.58
2022-07-31T07:31:01.744Z,1.50
2022-07-31T07:33:40.879Z,1.92
2022-07-31T07:36:22.663Z,1.80
2022-07-31T07:38:54.893Z,1.50
2022-07-31T07:41:24.016Z,2.05
2022-07-31T07:43:52.539Z,1.40
2022-07-31T07:46:21.336Z,1.50
2022-07-31T07:48:50.885Z,1.85
2022-07-31T07:51:18.422Z,1.60
2022-07-31T07:53:45.593Z,1.73
2022-07-31T07:56:12.612Z,1.85
2022-07-31T07:58:39.840Z,2.15
2022-07-31T08:01:06.817Z,1.83
2022-07-31T08:03:49.099Z,1.90
2022-07-31T08:06:17.528Z,1.50
2022-07-31T08:08:44.519Z,1.52
2022-07-31T08:11:17.510Z,1.60
2022-07-31T08:13:50.013Z,1.45
2022-07-31T08:16:17.904Z,1.37
2022-07-31T08:18:44.932Z,1.30
2022-07-31T08:21:12.266Z,1.50
2022-07-31T08:23:39.291Z,1.37
2022-07-31T08:26:08.504Z,1.75
2022-07-31T08:28:36.221Z,1.50
2022-07-31T08:31:03.709Z,1.30
2022-07-31T08:33:30.730Z,1.50
2022-07-31T08:35:57.669Z,1.70
2022-07-31T08:38:24.676Z,1.75
2022-07-31T08:40:51.736Z,1.55
2022-07-31T08:44:02.868Z,1.20
2022-07-31T08:46:08.219Z,1.60
2022-07-31T08:48:41.179Z,1.37
2022-07-31T08:51:11.649Z,1.30
2022-07-31T08:53:40.132Z,1.50
2022-07-31T08:56:09.285Z,1.40
2022-07-31T08:58:39.634Z,1.33
2022-07-31T09:01:08.796Z,1.33
2022-07-31T09:03:36.447Z,1.50
2022-07-31T09:06:04.277Z,1.23
2022-07-31T09:08:36.187Z,1.30
2022-07-31T09:11:14.154Z,1.45
2022-07-31T09:14:02.335Z,0.90
2022-07-31T09:16:31.361Z,1.40
2022-07-31T09:19:52.822Z,1.02
2022-07-31T09:21:52.565Z,1.15
2022-07-31T09:24:39.417Z,1.00
2022-07-31T09:27:11.715Z,1.37
2022-07-31T09:29:43.307Z,1.20
2022-07-31T09:32:19.070Z,1.20
2022-07-31T09:34:47.954Z,1.40
2022-07-31T09:37:19.821Z,1.20
2022-07-31T09:39:54.280Z,1.40
2022-07-31T09:42:22.442Z,1.10
2022-07-31T09:44:51.366Z,0.77
2022-07-31T09:47:29.171Z,1.00
2022-07-31T09:50:04.983Z,1.20
2022-07-31T09:52:33.506Z,1.60
2022-07-31T09:55:15.763Z,1.23
2022-07-31T09:57:57.641Z,1.12
2022-07-31T10:00:26.134Z,1.02
2022-07-31T10:02:56.925Z,1.30
2022-07-31T10:05:26.065Z,1.10
2022-07-31T10:07:56.911Z,1.08
2022-07-31T10:10:24.950Z,1.20
2022-07-31T10:12:54.667Z,0.95
2022-07-31T10:15:23.921Z,1.10
2022-07-31T10:17:52.684Z,0.90
2022-07-31T10:20:22.912Z,0.88
2022-07-31T10:22:59.392Z,1.10
2022-07-31T10:25:28.859Z,0.98
2022-07-31T10:27:59.528Z,1.35
2022-07-31T10:30:28.526Z,0.93
2022-07-31T10:32:56.399Z,0.82
2022-07-31T10:35:23.597Z,1.25
2022-07-31T10:38:01.384Z,0.90
2022-07-31T10:40:45.349Z,1.08
2022-07-31T10:43:39.473Z,0.85
2022-07-31T10:46:07.023Z,0.93
2022-07-31T10:48:33.978Z,1.10
2022-07-31T10:51:06.197Z,0.70
2022-07-31T10:53:50.449Z,1.10
2022-07-31T10:56:20.441Z,1.08
2022-07-31T10:58:50.073Z,1.00
2022-07-31T11:01:17.932Z,1.10
2022-07-31T11:03:47.261Z,0.93
2022-07-31T11:06:18.249Z,0.88
2022-07-31T11:08:48.385Z,0.90
2022-07-31T11:11:15.837Z,0.68
2022-07-31T11:13:55.474Z,1.10
2022-07-31T11:16:22.943Z,1.20
2022-07-31T11:19:06.299Z,0.70
2022-07-31T11:21:38.945Z,0.90
2022-07-31T11:24:19.646Z,1.10
2022-07-31T11:26:57.546Z,1.00
2022-07-31T11:30:01.428Z,1.25
2022-07-31T11:32:26.754Z,1.00
2022-07-31T11:34:56.097Z,1.00
2022-07-31T11:37:30.614Z,1.05
2022-07-31T11:40:08.827Z,0.88
2022-07-31T11:42:43.591Z,0.75
2022-07-31T11:46:21.437Z,0.90
2022-07-31T11:48:12.522Z,1.37
2022-07-31T11:50:45.154Z,1.25
2022-07-31T11:53:12.764Z,1.00
2022-07-31T11:55:51.860Z,1.10
2022-07-31T11:58:21.002Z,1.30
2022-07-31T12:00:51.955Z,0.90
2022-07-31T12:03:21.199Z,0.90
2022-07-31T12:05:50.089Z,1.05
2022-07-31T12:08:17.189Z,1.02
2022-07-31T12:10:46.143Z,1.00
2022-07-31T12:13:18.876Z,0.68
2022-07-31T12:16:04.277Z,1.17
2022-07-31T12:18:47.354Z,1.30
2022-07-31T12:21:15.198Z,0.70
2022-07-31T12:23:51.058Z,1.00
2022-07-31T12:26:30.886Z,0.80
2022-07-31T12:29:08.739Z,0.95
2022-07-31T12:31:49.366Z,1.10
2022-07-31T12:34:35.131Z,0.88
2022-07-31T12:37:07.606Z,0.93
2022-07-31T12:39:54.112Z,0.85
2022-07-31T12:42:36.267Z,1.08
2022-07-31T12:45:19.369Z,0.95
2022-07-31T12:47:51.717Z,0.90
2022-07-31T12:50:22.795Z,1.05
2022-07-31T12:52:49.917Z,0.90
2022-07-31T12:55:17.749Z,0.90
2022-07-31T12:57:50.323Z,1.10
2022-07-31T13:00:20.246Z,0.88
2022-07-31T13:02:47.228Z,1.25
2022-07-31T13:05:14.182Z,0.98
2022-07-31T13:07:41.437Z,1.00
2022-07-31T13:10:19.926Z,0.82
2022-07-31T13:12:50.535Z,1.00
2022-07-31T13:15:29.767Z,0.70
2022-07-31T13:18:05.115Z,0.70
2022-07-31T13:20:32.451Z,1.10
2022-07-31T13:22:59.694Z,0.82
2022-07-31T13:25:30.794Z,1.33
2022-07-31T13:27:58.928Z,0.95
2022-07-31T13:30:27.726Z,0.80
2022-07-31T13:32:54.725Z,1.30
2022-07-31T13:35:27.755Z,0.70
2022-07-31T13:37:55.950Z,1.00
2022-07-31T13:40:42.955Z,0.80
2022-07-31T13:43:10.054Z,1.10
2022-07-31T13:45:37.575Z,0.80
2022-07-31T13:48:09.365Z,0.90
2022-07-31T13:50:40.241Z,1.00
2022-07-31T13:53:08.139Z,1.10
2022-07-31T13:55:35.114Z,1.30
2022-07-31T13:58:02.506Z,1.00
2022-07-31T14:00:30.816Z,0.85
2022-07-31T14:02:58.661Z,0.88
2022-07-31T14:05:27.580Z,1.00
2022-07-31T14:07:55.680Z,0.93
2022-07-31T14:10:23.199Z,1.15
2022-07-31T14:12:50.525Z,1.10
2022-07-31T14:15:20.106Z,1.08
2022-07-31T14:17:47.122Z,0.68
2022-07-31T14:20:14.301Z,1.02
2022-07-31T14:22:42.459Z,1.15
2022-07-31T14:25:10.466Z,0.90
2022-07-31T14:27:38.779Z,0.60
2022-07-31T14:30:07.707Z,0.70
2022-07-31T14:32:35.139Z,0.85
2022-07-31T14:35:07.418Z,0.80
2022-07-31T14:37:35.255Z,0.80
2022-07-31T14:40:02.244Z,0.93
2022-07-31T14:42:29.164Z,1.00
2022-07-31T14:44:56.179Z,1.02
2022-07-31T14:47:23.670Z,1.08
2022-07-31T14:50:06.559Z,1.08
2022-07-31T14:52:37.763Z,1.00
2022-07-31T14:55:05.790Z,0.75
2022-07-31T14:57:32.757Z,0.90
2022-07-31T14:59:59.841Z,0.70
2022-07-31T15:02:27.093Z,1.02
2022-07-31T15:04:54.287Z,1.20
2022-07-31T15:07:41.121Z,0.73
2022-07-31T15:10:10.352Z,1.10
2022-07-31T15:12:37.443Z,0.60
2022-07-31T15:15:04.909Z,1.17
2022-07-31T15:17:31.857Z,0.95
2022-07-31T15:19:58.808Z,1.33
2022-07-31T15:22:25.830Z,1.40
2022-07-31T15:24:52.809Z,0.95
2022-07-31T15:27:24.252Z,0.82
2022-07-31T15:30:05.014Z,0.90
2022-07-31T15:32:38.888Z,0.93
2022-07-31T15:35:08.089Z,0.93
2022-07-31T15:37:39.982Z,0.88
2022-07-31T15:40:09.355Z,1.20
2022-07-31T15:42:40.206Z,0.75
2022-07-31T15:45:08.843Z,0.88
2022-07-31T15:47:35.860Z,0.75
2022-07-31T15:50:03.306Z,1.12
2022-07-31T15:52:30.279Z,0.80
2022-07-31T15:54:57.339Z,1.30
2022-07-31T15:57:24.784Z,1.00
2022-07-31T15:59:56.293Z,0.90
2022-07-31T16:02:24.174Z,0.80
2022-07-31T16:04:55.602Z,0.70
2022-07-31T16:08:29.096Z,0.90
2022-07-31T16:10:15.769Z,0.80
2022-07-31T16:12:48.454Z,1.17
2022-07-31T16:15:17.130Z,0.77
2022-07-31T16:17:45.308Z,1.00
2022-07-31T16:20:25.691Z,0.93
2022-07-31T16:22:57.032Z,0.82
2022-07-31T16:25:24.837Z,0.90
2022-07-31T16:27:51.940Z,1.12
2022-07-31T16:30:18.997Z,1.20
2022-07-31T16:32:46.164Z,1.58
2022-07-31T16:35:13.291Z,1.40
2022-07-31T16:37:51.587Z,1.23
2022-07-31T16:40:26.973Z,0.95
2022-07-31T16:43:01.085Z,1.02
2022-07-31T16:45:29.051Z,1.23
2022-07-31T16:47:56.004Z,1.10
2022-07-31T16:50:23.312Z,1.40
2022-07-31T16:52:54.587Z,1.20
2022-07-31T16:55:46.249Z,0.88
2022-07-31T16:58:11.706Z,1.02
2022-07-31T17:00:39.947Z,1.50
2022-07-31T17:03:58.702Z,1.70
2022-07-31T17:05:54.265Z,1.75
2022-07-31T17:08:21.577Z,1.30
2022-07-31T17:10:53.960Z,1.20
2022-07-31T17:13:22.274Z,1.52
2022-07-31T17:15:49.407Z,1.10
2022-07-31T17:18:16.367Z,1.48
2022-07-31T17:20:47.176Z,1.48
2022-07-31T17:23:14.761Z,1.00
2022-07-31T17:25:42.835Z,1.70
2022-07-31T17:28:14.735Z,1.35
2022-07-31T17:30:42.374Z,1.30
2022-07-31T17:33:09.339Z,1.70
2022-07-31T17:35:36.272Z,1.45
2022-07-31T17:38:03.696Z,1.30
2022-07-31T17:40:43.119Z,1.10
2022-07-31T17:43:10.963Z,1.10
2022-07-31T17:45:59.551Z,1.40
2022-07-31T17:48:28.025Z,1.30
2022-07-31T17:50:54.957Z,1.35
2022-07-31T17:53:22.070Z,1.35
2022-07-31T17:55:52.098Z,1.67
2022-07-31T17:58:20.234Z,1.80
2022-07-31T18:00:47.250Z,1.40
2022-07-31T18:03:14.280Z,1.05
2022-07-31T18:05:41.260Z,1.20
2022-07-31T18:08:08.275Z,1.52
2022-07-31T18:10:53.579Z,1.30
2022-07-31T18:13:21.891Z,1.50
2022-07-31T18:15:48.840Z,1.42
2022-07-31T18:18:15.747Z,1.33
2022-07-31T18:20:45.263Z,1.20
2022-07-31T18:23:12.404Z,1.65
2022-07-31T18:25:41.535Z,1.42
2022-07-31T18:28:09.059Z,1.23
2022-07-31T18:30:38.927Z,1.42
2022-07-31T18:33:06.176Z,1.23
2022-07-31T18:35:33.151Z,1.35
2022-07-31T18:38:00.168Z,1.62
2022-07-31T18:40:27.126Z,1.40
2022-07-31T18:42:54.082Z,1.30
2022-07-31T18:45:22.281Z,1.52
2022-07-31T18:47:50.590Z,1.73
2022-07-31T18:50:59.457Z,1.80
2022-07-31T18:53:04.639Z,1.10
2022-07-31T18:55:31.609Z,1.02
2022-07-31T18:57:59.536Z,1.77
2022-07-31T19:00:26.619Z,1.15
2022-07-31T19:02:53.737Z,1.52
2022-07-31T19:05:21.568Z,1.33
2022-07-31T19:07:49.396Z,1.33
2022-07-31T19:10:29.258Z,1.83
2022-07-31T19:12:56.902Z,1.75
2022-07-31T19:15:23.916Z,1.67
2022-07-31T19:17:50.873Z,1.52
2022-07-31T19:20:51.759Z,0.95
2022-07-31T19:23:07.112Z,1.80
2022-07-31T19:25:53.008Z,1.33
2022-07-31T19:28:27.428Z,1.42
2022-07-31T19:30:55.101Z,2.33
2022-07-31T19:33:22.044Z,1.30
2022-07-31T19:35:55.443Z,1.85
2022-07-31T19:38:28.300Z,1.95
2022-07-31T19:40:55.315Z,2.10
2022-07-31T19:43:22.530Z,1.62
2022-07-31T19:46:10.712Z,1.77
2022-07-31T19:48:36.900Z,1.37
2022-07-31T19:51:04.705Z,1.40
2022-07-31T19:53:31.669Z,1.87
2022-07-31T19:56:00.451Z,1.42
2022-07-31T19:58:27.429Z,1.60
2022-07-31T20:00:54.434Z,2.22
2022-07-31T20:03:21.498Z,1.73
2022-07-31T20:05:48.543Z,1.90
2022-07-31T20:08:15.576Z,2.17
2022-07-31T20:10:42.572Z,1.20
2022-07-31T20:13:09.807Z,1.40
2022-07-31T20:15:51.417Z,1.73
2022-07-31T20:18:27.403Z,1.20
2022-07-31T20:21:04.501Z,1.08
2022-07-31T20:23:34.231Z,1.30
2022-07-31T20:26:01.466Z,1.42
2022-07-31T20:28:28.489Z,1.60
2022-07-31T20:30:55.603Z,1.62
2022-07-31T20:33:22.579Z,2.05
2022-07-31T20:35:50.493Z,1.90
2022-07-31T20:38:22.291Z,2.05
2022-07-31T20:40:53.876Z,2.25
2022-07-31T20:43:23.950Z,1.75
2022-07-31T20:45:51.603Z,1.37
2022-07-31T20:48:18.773Z,1.83
2022-07-31T20:50:48.303Z,1.60
2022-07-31T20:53:16.372Z,1.87
2022-07-31T20:55:47.133Z,1.80
2022-07-31T20:58:14.355Z,1.50
2022-07-31T21:00:41.906Z,2.30
2022-07-31T21:03:09.077Z,1.77
2022-07-31T21:05:36.064Z,1.48
2022-07-31T21:08:03.090Z,1.60
2022-07-31T21:10:30.232Z,1.40
2022-07-31T21:12:57.873Z,1.70
2022-07-31T21:15:41.022Z,1.60
2022-07-31T21:18:19.337Z,1.58
2022-07-31T21:20:51.127Z,2.03
2022-07-31T21:23:26.642Z,1.30
2022-07-31T21:25:55.523Z,1.25
2022-07-31T21:28:23.532Z,1.55
2022-07-31T21:30:51.013Z,1.90
2022-07-31T21:33:18.442Z,1.30
2022-07-31T21:35:46.573Z,1.75
2022-07-31T21:38:16.551Z,1.50
2022-07-31T21:40:44.702Z,1.80
2022-07-31T21:43:14.665Z,1.67
2022-07-31T21:45:54.969Z,1.80
2022-07-31T21:48:26.963Z,1.80
2022-07-31T21:50:54.775Z,1.95
2022-07-31T21:53:22.435Z,1.60
2022-07-31T21:55:49.517Z,2.15
2022-07-31T21:58:17.049Z,1.75
2022-07-31T22:00:44.809Z,1.87
2022-07-31T22:03:11.976Z,2.00
2022-07-31T22:05:58.005Z,2.03
2022-07-31T22:08:25.402Z,1.85
2022-07-31T22:10:53.453Z,1.42
2022-07-31T22:13:20.632Z,1.40
2022-07-31T22:15:52.565Z,1.55
2022-07-31T22:18:28.926Z,2.45
2022-07-31T22:20:56.398Z,1.90
2022-07-31T22:23:23.571Z,1.95
2022-07-31T22:25:50.762Z,1.83
2022-07-31T22:28:20.472Z,1.83
2022-07-31T22:30:48.200Z,1.98
2022-07-31T22:33:15.298Z,1.87
2022-07-31T22:35:42.670Z,1.58
2022-07-31T22:38:11.823Z,1.98
2022-07-31T22:40:39.055Z,1.80
2022-07-31T22:44:05.521Z,2.03
2022-07-31T22:45:54.508Z,1.67
2022-07-31T22:48:24.021Z,1.83
2022-07-31T22:50:51.065Z,1.80
2022-07-31T22:53:18.100Z,2.20
2022-07-31T22:55:45.279Z,2.50
2022-07-31T22:58:15.157Z,2.30
2022-07-31T23:00:43.079Z,2.25
2022-07-31T23:03:10.017Z,2.60
2022-07-31T23:06:02.464Z,2.05
2022-07-31T23:08:23.978Z,1.90
2022-07-31T23:10:50.963Z,2.37
2022-07-31T23:13:17.930Z,2.33
2022-07-31T23:15:44.948Z,2.42
2022-07-31T23:18:12.023Z,2.47
2022-07-31T23:20:39.142Z,2.47
2022-07-31T23:23:06.147Z,2.50
2022-07-31T23:25:33.243Z,2.40
2022-07-31T23:28:00.227Z,2.10
2022-07-31T23:30:27.615Z,2.72
2022-07-31T23:32:55.446Z,2.50
2022-07-31T23:35:22.429Z,2.50
2022-07-31T23:37:49.986Z,2.47
2022-07-31T23:40:16.897Z,2.80
2022-07-31T23:42:43.857Z,2.30
2022-07-31T23:45:12.921Z,2.55
2022-07-31T23:47:44.652Z,2.30
2022-07-31T23:50:13.712Z,2.30
2022-07-31T23:52:40.736Z,2.15
2022-07-31T23:55:08.177Z,2.25
2022-07-31T23:57:36.090Z,2.25
